Terminal Aerodrome Forecast
Issued by NWS

Current Version | Previous Version | Text Only | Print | Product List | Glossary On
Versions: 1 2 3 4 5 6 7 8 9 10 11 12 13 14 15 16 17 18 19 20 21 22 23 24 25 26 27
000
FTPA31 PHFO 191700
TAFMKK
TAF
PHMK 191735Z 1918/2018 VRB04KT P6SM FEW060
     FM192100 12008KT P6SM VCSH FEW035 SCT060
     FM200500 05006KT P6SM FEW060
     FM200800 VRB04KT P6SM FEW060=

USA.gov is the U.S. government's official web portal to all federal, state and local government web resources and services.